sensor_id;sensor_type;location;lat;lon;timestamp;temperature;humidity
52943;DHT22;38809;53.300;6.614;2023-02-25T00:01:17;5.50;99.90
52943;DHT22;38809;53.300;6.614;2023-02-25T00:03:44;5.40;99.90
52943;DHT22;38809;53.300;6.614;2023-02-25T00:06:11;5.30;99.90
52943;DHT22;38809;53.300;6.614;2023-02-25T00:08:44;5.40;99.90
52943;DHT22;38809;53.300;6.614;2023-02-25T00:11:11;5.40;99.90
52943;DHT22;38809;53.300;6.614;2023-02-25T00:13:39;5.30;99.90
52943;DHT22;38809;53.300;6.614;2023-02-25T00:16:06;5.10;99.90
52943;DHT22;38809;53.300;6.614;2023-02-25T00:18:32;5.30;99.90
52943;DHT22;38809;53.300;6.614;2023-02-25T00:21:00;5.20;99.90
52943;DHT22;38809;53.300;6.614;2023-02-25T00:23:28;4.90;99.90
52943;DHT22;38809;53.300;6.614;2023-02-25T00:25:58;4.70;99.90
52943;DHT22;38809;53.300;6.614;2023-02-25T00:28:24;4.50;99.90
52943;DHT22;38809;53.300;6.614;2023-02-25T00:30:50;4.50;99.90
52943;DHT22;38809;53.300;6.614;2023-02-25T00:33:16;4.20;99.90
52943;DHT22;38809;53.300;6.614;2023-02-25T00:35:41;4.40;99.90
52943;DHT22;38809;53.300;6.614;2023-02-25T00:38:07;4.50;99.90
52943;DHT22;38809;53.300;6.614;2023-02-25T00:40:37;4.10;99.90
52943;DHT22;38809;53.300;6.614;2023-02-25T00:43:03;4.10;99.90
52943;DHT22;38809;53.300;6.614;2023-02-25T00:45:28;4.10;99.90
52943;DHT22;38809;53.300;6.614;2023-02-25T00:47:54;4.10;99.90
52943;DHT22;38809;53.300;6.614;2023-02-25T00:50:20;4.20;99.90
52943;DHT22;38809;53.300;6.614;2023-02-25T00:52:45;4.50;99.90
52943;DHT22;38809;53.300;6.614;2023-02-25T00:55:11;4.20;99.90
52943;DHT22;38809;53.300;6.614;2023-02-25T00:57:37;4.20;99.90
52943;DHT22;38809;53.300;6.614;2023-02-25T01:00:04;4.30;99.90
52943;DHT22;38809;53.300;6.614;2023-02-25T01:02:34;4.40;99.90
52943;DHT22;38809;53.300;6.614;2023-02-25T01:05:00;4.50;99.90
52943;DHT22;38809;53.300;6.614;2023-02-25T01:07:26;4.30;99.90
52943;DHT22;38809;53.300;6.614;2023-02-25T01:09:55;4.60;99.90
52943;DHT22;38809;53.300;6.614;2023-02-25T01:12:21;4.60;99.90
52943;DHT22;38809;53.300;6.614;2023-02-25T01:14:47;4.60;99.90
52943;DHT22;38809;53.300;6.614;2023-02-25T01:17:13;5.00;99.90
52943;DHT22;38809;53.300;6.614;2023-02-25T01:19:39;5.30;99.90
52943;DHT22;38809;53.300;6.614;2023-02-25T01:22:05;4.70;99.90
52943;DHT22;38809;53.300;6.614;2023-02-25T01:24:32;4.70;99.90
52943;DHT22;38809;53.300;6.614;2023-02-25T01:27:00;4.70;99.90
52943;DHT22;38809;53.300;6.614;2023-02-25T01:29:33;4.70;99.90
52943;DHT22;38809;53.300;6.614;2023-02-25T01:32:00;4.80;99.90
52943;DHT22;38809;53.300;6.614;2023-02-25T01:34:28;4.60;99.90
52943;DHT22;38809;53.300;6.614;2023-02-25T01:36:54;4.90;99.90
52943;DHT22;38809;53.300;6.614;2023-02-25T01:39:21;4.80;99.90
52943;DHT22;38809;53.300;6.614;2023-02-25T01:41:48;6.20;99.90
52943;DHT22;38809;53.300;6.614;2023-02-25T01:44:21;4.70;99.90
52943;DHT22;38809;53.300;6.614;2023-02-25T01:46:52;4.80;99.90
52943;DHT22;38809;53.300;6.614;2023-02-25T01:49:35;4.80;99.90
52943;DHT22;38809;53.300;6.614;2023-02-25T01:52:20;4.90;99.90
52943;DHT22;38809;53.300;6.614;2023-02-25T01:54:54;4.80;99.90
52943;DHT22;38809;53.300;6.614;2023-02-25T01:57:20;4.70;99.90
52943;DHT22;38809;53.300;6.614;2023-02-25T01:59:47;4.80;99.90
52943;DHT22;38809;53.300;6.614;2023-02-25T02:02:17;4.80;99.90
52943;DHT22;38809;53.300;6.614;2023-02-25T02:04:45;4.70;99.90
52943;DHT22;38809;53.300;6.614;2023-02-25T02:07:16;6.30;99.90
52943;DHT22;38809;53.300;6.614;2023-02-25T02:09:42;4.70;99.90
52943;DHT22;38809;53.300;6.614;2023-02-25T02:12:24;4.80;99.90
52943;DHT22;38809;53.300;6.614;2023-02-25T02:14:51;4.80;99.90
52943;DHT22;38809;53.300;6.614;2023-02-25T02:17:23;4.80;99.90
52943;DHT22;38809;53.300;6.614;2023-02-25T02:23:20;4.80;99.90
52943;DHT22;38809;53.300;6.614;2023-02-25T02:25:51;4.80;99.90
52943;DHT22;38809;53.300;6.614;2023-02-25T02:42:07;4.10;99.90
52943;DHT22;38809;53.300;6.614;2023-02-25T02:47:32;4.10;99.90
52943;DHT22;38809;53.300;6.614;2023-02-25T02:50:00;4.20;99.90
52943;DHT22;38809;53.300;6.614;2023-02-25T02:52:30;4.20;99.90
52943;DHT22;38809;53.300;6.614;2023-02-25T02:55:03;4.30;99.90
52943;DHT22;38809;53.300;6.614;2023-02-25T02:57:32;4.30;99.90
52943;DHT22;38809;53.300;6.614;2023-02-25T03:00:10;4.40;99.90
52943;DHT22;38809;53.300;6.614;2023-02-25T03:02:50;4.40;99.90
52943;DHT22;38809;53.300;6.614;2023-02-25T03:05:17;4.70;99.90
52943;DHT22;38809;53.300;6.614;2023-02-25T03:08:19;4.50;99.90
52943;DHT22;38809;53.300;6.614;2023-02-25T03:10:47;4.50;99.90
52943;DHT22;38809;53.300;6.614;2023-02-25T03:13:14;4.50;99.90
52943;DHT22;38809;53.300;6.614;2023-02-25T03:15:40;5.30;99.90
52943;DHT22;38809;53.300;6.614;2023-02-25T03:18:29;4.50;99.90
52943;DHT22;38809;53.300;6.614;2023-02-25T03:20:58;4.50;99.90
52943;DHT22;38809;53.300;6.614;2023-02-25T03:23:29;4.70;99.90
52943;DHT22;38809;53.300;6.614;2023-02-25T03:26:01;4.70;99.90
52943;DHT22;38809;53.300;6.614;2023-02-25T03:28:33;4.50;99.90
52943;DHT22;38809;53.300;6.614;2023-02-25T03:38:57;4.50;99.90
52943;DHT22;38809;53.300;6.614;2023-02-25T03:41:29;4.70;99.90
52943;DHT22;38809;53.300;6.614;2023-02-25T03:43:57;4.70;99.90
52943;DHT22;38809;53.300;6.614;2023-02-25T03:46:24;4.50;99.90
52943;DHT22;38809;53.300;6.614;2023-02-25T03:48:51;4.20;99.90
52943;DHT22;38809;53.300;6.614;2023-02-25T03:51:22;3.90;99.90
52943;DHT22;38809;53.300;6.614;2023-02-25T03:53:49;4.00;99.90
52943;DHT22;38809;53.300;6.614;2023-02-25T03:56:15;5.10;99.90
52943;DHT22;38809;53.300;6.614;2023-02-25T03:58:42;3.90;99.90
52943;DHT22;38809;53.300;6.614;2023-02-25T04:01:20;3.80;99.90
52943;DHT22;38809;53.300;6.614;2023-02-25T04:03:47;3.70;99.90
52943;DHT22;38809;53.300;6.614;2023-02-25T04:06:13;3.80;99.90
52943;DHT22;38809;53.300;6.614;2023-02-25T04:08:40;4.20;99.90
52943;DHT22;38809;53.300;6.614;2023-02-25T04:11:05;3.80;99.90
52943;DHT22;38809;53.300;6.614;2023-02-25T04:13:31;3.90;99.90
52943;DHT22;38809;53.300;6.614;2023-02-25T04:15:57;4.00;99.90
52943;DHT22;38809;53.300;6.614;2023-02-25T04:18:23;4.30;99.90
52943;DHT22;38809;53.300;6.614;2023-02-25T04:20:49;3.90;99.90
52943;DHT22;38809;53.300;6.614;2023-02-25T04:23:15;4.10;99.90
52943;DHT22;38809;53.300;6.614;2023-02-25T04:25:42;4.10;99.90
52943;DHT22;38809;53.300;6.614;2023-02-25T04:28:09;4.10;99.90
52943;DHT22;38809;53.300;6.614;2023-02-25T04:30:35;4.00;99.90
52943;DHT22;38809;53.300;6.614;2023-02-25T04:33:01;4.10;99.90
52943;DHT22;38809;53.300;6.614;2023-02-25T04:35:27;4.30;99.90
52943;DHT22;38809;53.300;6.614;2023-02-25T04:37:52;4.20;99.90
52943;DHT22;38809;53.300;6.614;2023-02-25T04:40:21;4.70;99.90
52943;DHT22;38809;53.300;6.614;2023-02-25T04:42:47;4.10;99.90
52943;DHT22;38809;53.300;6.614;2023-02-25T04:45:14;4.20;99.90
52943;DHT22;38809;53.300;6.614;2023-02-25T04:47:40;4.40;99.90
52943;DHT22;38809;53.300;6.614;2023-02-25T04:50:07;4.30;99.90
52943;DHT22;38809;53.300;6.614;2023-02-25T04:52:33;4.30;99.90
52943;DHT22;38809;53.300;6.614;2023-02-25T04:54:59;4.40;99.90
52943;DHT22;38809;53.300;6.614;2023-02-25T04:57:24;4.20;99.90
52943;DHT22;38809;53.300;6.614;2023-02-25T04:59:50;4.80;99.90
52943;DHT22;38809;53.300;6.614;2023-02-25T05:02:16;4.30;99.90
52943;DHT22;38809;53.300;6.614;2023-02-25T05:04:41;4.40;99.90
52943;DHT22;38809;53.300;6.614;2023-02-25T05:07:07;4.40;99.90
52943;DHT22;38809;53.300;6.614;2023-02-25T05:09:33;4.30;99.90
52943;DHT22;38809;53.300;6.614;2023-02-25T05:11:59;4.40;99.90
52943;DHT22;38809;53.300;6.614;2023-02-25T05:14:25;4.30;99.90
52943;DHT22;38809;53.300;6.614;2023-02-25T05:16:51;4.30;99.90
52943;DHT22;38809;53.300;6.614;2023-02-25T05:19:22;4.40;99.90
52943;DHT22;38809;53.300;6.614;2023-02-25T05:21:48;4.20;99.90
52943;DHT22;38809;53.300;6.614;2023-02-25T05:24:15;4.30;99.90
52943;DHT22;38809;53.300;6.614;2023-02-25T05:26:41;4.20;99.90
52943;DHT22;38809;53.300;6.614;2023-02-25T05:29:07;4.30;99.90
52943;DHT22;38809;53.300;6.614;2023-02-25T05:31:34;4.40;99.90
52943;DHT22;38809;53.300;6.614;2023-02-25T05:34:00;5.10;99.90
52943;DHT22;38809;53.300;6.614;2023-02-25T05:36:26;4.30;99.90
52943;DHT22;38809;53.300;6.614;2023-02-25T05:38:56;4.20;99.90
52943;DHT22;38809;53.300;6.614;2023-02-25T05:41:23;4.30;99.90
52943;DHT22;38809;53.300;6.614;2023-02-25T05:43:49;4.60;99.90
52943;DHT22;38809;53.300;6.614;2023-02-25T05:46:15;4.20;99.90
52943;DHT22;38809;53.300;6.614;2023-02-25T05:48:42;4.70;99.90
52943;DHT22;38809;53.300;6.614;2023-02-25T05:51:15;4.30;99.90
52943;DHT22;38809;53.300;6.614;2023-02-25T05:53:41;4.30;99.90
52943;DHT22;38809;53.300;6.614;2023-02-25T05:56:11;3.50;99.90
52943;DHT22;38809;53.300;6.614;2023-02-25T05:58:37;4.20;99.90
52943;DHT22;38809;53.300;6.614;2023-02-25T06:01:11;4.10;99.90
52943;DHT22;38809;53.300;6.614;2023-02-25T06:03:41;4.10;99.90
52943;DHT22;38809;53.300;6.614;2023-02-25T06:06:09;3.70;99.90
52943;DHT22;38809;53.300;6.614;2023-02-25T06:08:37;3.60;99.90
52943;DHT22;38809;53.300;6.614;2023-02-25T06:11:05;4.50;99.90
52943;DHT22;38809;53.300;6.614;2023-02-25T06:13:31;3.40;99.90
52943;DHT22;38809;53.300;6.614;2023-02-25T06:15:57;3.40;99.90
52943;DHT22;38809;53.300;6.614;2023-02-25T06:18:23;3.70;99.90
52943;DHT22;38809;53.300;6.614;2023-02-25T06:20:48;3.40;99.90
52943;DHT22;38809;53.300;6.614;2023-02-25T06:23:14;3.30;99.90
52943;DHT22;38809;53.300;6.614;2023-02-25T06:25:40;3.90;99.90
52943;DHT22;38809;53.300;6.614;2023-02-25T06:28:06;3.40;99.90
52943;DHT22;38809;53.300;6.614;2023-02-25T06:30:32;3.40;99.90
52943;DHT22;38809;53.300;6.614;2023-02-25T06:32:57;3.40;99.90
52943;DHT22;38809;53.300;6.614;2023-02-25T06:35:23;3.50;99.90
52943;DHT22;38809;53.300;6.614;2023-02-25T06:37:53;3.50;99.90
52943;DHT22;38809;53.300;6.614;2023-02-25T06:40:19;3.30;99.90
52943;DHT22;38809;53.300;6.614;2023-02-25T06:42:45;3.40;99.90
52943;DHT22;38809;53.300;6.614;2023-02-25T06:45:11;4.00;99.90
52943;DHT22;38809;53.300;6.614;2023-02-25T06:47:36;3.50;99.90
52943;DHT22;38809;53.300;6.614;2023-02-25T06:50:02;3.60;99.90
52943;DHT22;38809;53.300;6.614;2023-02-25T06:52:28;3.60;99.90
52943;DHT22;38809;53.300;6.614;2023-02-25T06:54:53;3.50;99.90
52943;DHT22;38809;53.300;6.614;2023-02-25T06:57:19;3.50;99.90
52943;DHT22;38809;53.300;6.614;2023-02-25T06:59:45;3.50;99.90
52943;DHT22;38809;53.300;6.614;2023-02-25T07:02:11;3.40;99.90
52943;DHT22;38809;53.300;6.614;2023-02-25T07:04:37;3.60;99.90
52943;DHT22;38809;53.300;6.614;2023-02-25T07:07:03;4.30;99.90
52943;DHT22;38809;53.300;6.614;2023-02-25T07:09:28;3.70;99.90
52943;DHT22;38809;53.300;6.614;2023-02-25T07:11:54;3.60;99.90
52943;DHT22;38809;53.300;6.614;2023-02-25T07:14:20;4.90;99.90
52943;DHT22;38809;53.300;6.614;2023-02-25T07:16:46;3.90;99.90
52943;DHT22;38809;53.300;6.614;2023-02-25T07:19:12;4.20;99.90
52943;DHT22;38809;53.300;6.614;2023-02-25T07:21:39;4.00;99.90
52943;DHT22;38809;53.300;6.614;2023-02-25T07:24:05;4.10;99.90
52943;DHT22;38809;53.300;6.614;2023-02-25T07:26:31;4.30;99.90
52943;DHT22;38809;53.300;6.614;2023-02-25T07:28:58;4.40;99.90
52943;DHT22;38809;53.300;6.614;2023-02-25T07:31:24;4.50;99.90
52943;DHT22;38809;53.300;6.614;2023-02-25T07:33:51;4.40;99.90
52943;DHT22;38809;53.300;6.614;2023-02-25T07:36:18;4.40;99.90
52943;DHT22;38809;53.300;6.614;2023-02-25T07:38:44;4.50;99.90
52943;DHT22;38809;53.300;6.614;2023-02-25T07:41:11;5.30;99.90
52943;DHT22;38809;53.300;6.614;2023-02-25T07:43:37;4.50;99.90
52943;DHT22;38809;53.300;6.614;2023-02-25T07:46:04;4.50;99.90
52943;DHT22;38809;53.300;6.614;2023-02-25T07:48:30;4.50;99.90
52943;DHT22;38809;53.300;6.614;2023-02-25T07:51:10;4.60;99.90
52943;DHT22;38809;53.300;6.614;2023-02-25T07:53:36;4.60;99.90
52943;DHT22;38809;53.300;6.614;2023-02-25T07:56:02;4.80;99.90
52943;DHT22;38809;53.300;6.614;2023-02-25T07:58:30;4.90;99.90
52943;DHT22;38809;53.300;6.614;2023-02-25T08:00:56;5.00;99.90
52943;DHT22;38809;53.300;6.614;2023-02-25T08:03:21;5.00;99.90
52943;DHT22;38809;53.300;6.614;2023-02-25T08:05:50;4.60;99.90
52943;DHT22;38809;53.300;6.614;2023-02-25T08:08:19;4.60;99.90
52943;DHT22;38809;53.300;6.614;2023-02-25T08:10:45;4.80;99.90
52943;DHT22;38809;53.300;6.614;2023-02-25T08:13:11;4.90;99.90
52943;DHT22;38809;53.300;6.614;2023-02-25T08:15:43;4.90;99.90
52943;DHT22;38809;53.300;6.614;2023-02-25T08:18:09;4.90;99.90
52943;DHT22;38809;53.300;6.614;2023-02-25T08:20:36;4.70;99.90
52943;DHT22;38809;53.300;6.614;2023-02-25T08:23:01;5.30;99.90
52943;DHT22;38809;53.300;6.614;2023-02-25T08:25:27;4.50;99.90
52943;DHT22;38809;53.300;6.614;2023-02-25T08:27:53;4.60;99.90
52943;DHT22;38809;53.300;6.614;2023-02-25T08:30:19;4.50;99.90
52943;DHT22;38809;53.300;6.614;2023-02-25T08:32:47;4.70;99.90
52943;DHT22;38809;53.300;6.614;2023-02-25T08:35:14;5.70;99.90
52943;DHT22;38809;53.300;6.614;2023-02-25T08:37:43;5.10;99.90
52943;DHT22;38809;53.300;6.614;2023-02-25T08:40:10;5.10;99.90
52943;DHT22;38809;53.300;6.614;2023-02-25T08:42:37;5.20;99.90
52943;DHT22;38809;53.300;6.614;2023-02-25T08:45:04;5.10;99.90
52943;DHT22;38809;53.300;6.614;2023-02-25T08:47:30;4.90;99.90
52943;DHT22;38809;53.300;6.614;2023-02-25T08:49:55;4.80;99.90
52943;DHT22;38809;53.300;6.614;2023-02-25T08:52:21;4.70;99.90
52943;DHT22;38809;53.300;6.614;2023-02-25T08:54:47;4.60;99.90
52943;DHT22;38809;53.300;6.614;2023-02-25T08:57:12;5.00;99.90
52943;DHT22;38809;53.300;6.614;2023-02-25T08:59:38;4.50;99.90
52943;DHT22;38809;53.300;6.614;2023-02-25T09:02:05;4.40;99.90
52943;DHT22;38809;53.300;6.614;2023-02-25T09:04:32;4.30;99.90
52943;DHT22;38809;53.300;6.614;2023-02-25T09:06:58;5.20;99.90
52943;DHT22;38809;53.300;6.614;2023-02-25T09:09:25;4.50;99.90
52943;DHT22;38809;53.300;6.614;2023-02-25T09:11:51;4.60;99.90
52943;DHT22;38809;53.300;6.614;2023-02-25T09:14:17;4.70;99.90
52943;DHT22;38809;53.300;6.614;2023-02-25T09:16:43;4.70;99.90
52943;DHT22;38809;53.300;6.614;2023-02-25T09:19:09;4.70;99.90
52943;DHT22;38809;53.300;6.614;2023-02-25T09:21:40;5.00;99.90
52943;DHT22;38809;53.300;6.614;2023-02-25T09:24:06;5.20;99.90
52943;DHT22;38809;53.300;6.614;2023-02-25T09:26:32;4.80;99.90
52943;DHT22;38809;53.300;6.614;2023-02-25T09:29:04;5.10;99.90
52943;DHT22;38809;53.300;6.614;2023-02-25T09:31:30;5.20;99.90
52943;DHT22;38809;53.300;6.614;2023-02-25T09:33:57;5.90;99.90
52943;DHT22;38809;53.300;6.614;2023-02-25T09:36:24;5.70;99.90
52943;DHT22;38809;53.300;6.614;2023-02-25T09:38:50;5.30;99.90
52943;DHT22;38809;53.300;6.614;2023-02-25T09:46:52;5.20;99.90
52943;DHT22;38809;53.300;6.614;2023-02-25T09:49:35;5.30;99.90
52943;DHT22;38809;53.300;6.614;2023-02-25T09:55:05;5.20;99.90
52943;DHT22;38809;53.300;6.614;2023-02-25T09:57:37;5.30;99.90
52943;DHT22;38809;53.300;6.614;2023-02-25T10:00:15;5.40;99.90
52943;DHT22;38809;53.300;6.614;2023-02-25T10:06:13;5.30;99.90
52943;DHT22;38809;53.300;6.614;2023-02-25T10:11:10;5.30;99.90
52943;DHT22;38809;53.300;6.614;2023-02-25T10:24:37;4.50;99.90
52943;DHT22;38809;53.300;6.614;2023-02-25T10:27:42;5.50;99.90
52943;DHT22;38809;53.300;6.614;2023-02-25T10:30:14;5.50;99.90
52943;DHT22;38809;53.300;6.614;2023-02-25T10:32:41;5.60;99.90
52943;DHT22;38809;53.300;6.614;2023-02-25T10:35:24;6.20;99.90
52943;DHT22;38809;53.300;6.614;2023-02-25T10:37:50;5.60;99.90
52943;DHT22;38809;53.300;6.614;2023-02-25T10:40:26;5.50;99.90
52943;DHT22;38809;53.300;6.614;2023-02-25T10:42:58;5.50;99.90
52943;DHT22;38809;53.300;6.614;2023-02-25T10:45:27;5.70;99.90
52943;DHT22;38809;53.300;6.614;2023-02-25T10:48:21;6.10;99.90
52943;DHT22;38809;53.300;6.614;2023-02-25T10:51:09;5.70;99.90
52943;DHT22;38809;53.300;6.614;2023-02-25T10:56:23;5.60;99.90
52943;DHT22;38809;53.300;6.614;2023-02-25T10:59:05;5.80;99.90
52943;DHT22;38809;53.300;6.614;2023-02-25T11:01:39;6.30;99.90
52943;DHT22;38809;53.300;6.614;2023-02-25T11:04:12;5.80;99.90
52943;DHT22;38809;53.300;6.614;2023-02-25T11:06:40;6.20;99.90
52943;DHT22;38809;53.300;6.614;2023-02-25T11:11:58;5.80;99.90
52943;DHT22;38809;53.300;6.614;2023-02-25T11:14:32;5.70;99.90
52943;DHT22;38809;53.300;6.614;2023-02-25T11:17:13;5.40;99.90
52943;DHT22;38809;53.300;6.614;2023-02-25T11:19:45;5.80;99.90
52943;DHT22;38809;53.300;6.614;2023-02-25T11:22:17;5.90;99.90
52943;DHT22;38809;53.300;6.614;2023-02-25T11:24:55;6.30;99.90
52943;DHT22;38809;53.300;6.614;2023-02-25T11:30:14;5.90;99.90
52943;DHT22;38809;53.300;6.614;2023-02-25T11:32:44;5.70;99.90
52943;DHT22;38809;53.300;6.614;2023-02-25T11:35:29;5.80;99.90
52943;DHT22;38809;53.300;6.614;2023-02-25T11:37:56;5.70;99.90
52943;DHT22;38809;53.300;6.614;2023-02-25T11:45:39;5.80;99.90
52943;DHT22;38809;53.300;6.614;2023-02-25T11:53:52;5.90;99.90
52943;DHT22;38809;53.300;6.614;2023-02-25T11:56:31;6.20;99.90
52943;DHT22;38809;53.300;6.614;2023-02-25T11:59:25;5.60;99.90
52943;DHT22;38809;53.300;6.614;2023-02-25T12:10:05;5.70;99.90
52943;DHT22;38809;53.300;6.614;2023-02-25T12:37:58;5.70;99.90
52943;DHT22;38809;53.300;6.614;2023-02-25T12:43:22;6.30;99.90
52943;DHT22;38809;53.300;6.614;2023-02-25T12:46:02;6.00;99.90
52943;DHT22;38809;53.300;6.614;2023-02-25T12:48:43;5.80;99.90
52943;DHT22;38809;53.300;6.614;2023-02-25T12:51:24;6.60;99.90
52943;DHT22;38809;53.300;6.614;2023-02-25T12:57:26;6.10;99.90
52943;DHT22;38809;53.300;6.614;2023-02-25T13:08:34;5.40;99.90
52943;DHT22;38809;53.300;6.614;2023-02-25T13:16:50;5.70;99.90
52943;DHT22;38809;53.300;6.614;2023-02-25T13:22:42;5.80;99.90
52943;DHT22;38809;53.300;6.614;2023-02-25T13:28:32;5.70;99.90
52943;DHT22;38809;53.300;6.614;2023-02-25T13:40:19;5.70;99.90
52943;DHT22;38809;53.300;6.614;2023-02-25T13:43:06;5.90;99.90
52943;DHT22;38809;53.300;6.614;2023-02-25T13:54:02;5.90;99.90
52943;DHT22;38809;53.300;6.614;2023-02-25T14:02:31;5.40;99.90
52943;DHT22;38809;53.300;6.614;2023-02-25T14:13:47;5.60;99.90
52943;DHT22;38809;53.300;6.614;2023-02-25T14:19:06;5.70;99.90
52943;DHT22;38809;53.300;6.614;2023-02-25T14:24:08;6.00;99.90
52943;DHT22;38809;53.300;6.614;2023-02-25T14:29:47;5.40;99.90
52943;DHT22;38809;53.300;6.614;2023-02-25T14:32:41;5.50;99.90
52943;DHT22;38809;53.300;6.614;2023-02-25T14:38:03;5.60;99.90
52943;DHT22;38809;53.300;6.614;2023-02-25T14:48:34;6.90;99.90
52943;DHT22;38809;53.300;6.614;2023-02-25T15:02:19;5.30;99.90
52943;DHT22;38809;53.300;6.614;2023-02-25T15:05:03;5.50;99.90
52943;DHT22;38809;53.300;6.614;2023-02-25T15:23:59;5.40;99.90
52943;DHT22;38809;53.300;6.614;2023-02-25T15:26:46;5.30;99.90
52943;DHT22;38809;53.300;6.614;2023-02-25T15:32:22;5.80;99.90
52943;DHT22;38809;53.300;6.614;2023-02-25T15:35:12;5.20;99.90
52943;DHT22;38809;53.300;6.614;2023-02-25T15:55:50;4.90;99.90
52943;DHT22;38809;53.300;6.614;2023-02-25T16:00:57;4.60;99.90
52943;DHT22;38809;53.300;6.614;2023-02-25T16:05:52;4.40;99.90
52943;DHT22;38809;53.300;6.614;2023-02-25T16:08:24;4.70;99.90
52943;DHT22;38809;53.300;6.614;2023-02-25T16:10:53;4.30;99.90
52943;DHT22;38809;53.300;6.614;2023-02-25T16:13:30;4.30;99.90
52943;DHT22;38809;53.300;6.614;2023-02-25T16:15:57;4.40;99.90
52943;DHT22;38809;53.300;6.614;2023-02-25T16:18:29;4.40;99.90
52943;DHT22;38809;53.300;6.614;2023-02-25T16:21:03;4.30;99.90
52943;DHT22;38809;53.300;6.614;2023-02-25T16:23:32;4.20;99.90
52943;DHT22;38809;53.300;6.614;2023-02-25T16:26:12;4.10;99.90
52943;DHT22;38809;53.300;6.614;2023-02-25T16:32:00;3.80;99.90
52943;DHT22;38809;53.300;6.614;2023-02-25T16:34:35;3.80;99.90
52943;DHT22;38809;53.300;6.614;2023-02-25T16:39:56;3.60;99.90
52943;DHT22;38809;53.300;6.614;2023-02-25T16:42:23;3.70;99.90
52943;DHT22;38809;53.300;6.614;2023-02-25T16:44:59;3.70;99.90
52943;DHT22;38809;53.300;6.614;2023-02-25T16:47:31;5.40;99.90
52943;DHT22;38809;53.300;6.614;2023-02-25T16:50:00;3.60;99.90
52943;DHT22;38809;53.300;6.614;2023-02-25T16:52:39;3.50;99.90
52943;DHT22;38809;53.300;6.614;2023-02-25T16:55:07;3.60;99.90
52943;DHT22;38809;53.300;6.614;2023-02-25T16:57:35;3.50;99.90
52943;DHT22;38809;53.300;6.614;2023-02-25T17:00:19;3.50;99.90
52943;DHT22;38809;53.300;6.614;2023-02-25T17:02:51;3.50;99.90
52943;DHT22;38809;53.300;6.614;2023-02-25T17:05:35;3.50;99.90
52943;DHT22;38809;53.300;6.614;2023-02-25T17:08:13;3.40;99.90
52943;DHT22;38809;53.300;6.614;2023-02-25T17:10:53;3.40;99.90
52943;DHT22;38809;53.300;6.614;2023-02-25T17:13:25;3.40;99.90
52943;DHT22;38809;53.300;6.614;2023-02-25T17:15:52;4.20;99.90
52943;DHT22;38809;53.300;6.614;2023-02-25T17:18:19;3.30;99.90
52943;DHT22;38809;53.300;6.614;2023-02-25T17:20:49;3.50;99.90
52943;DHT22;38809;53.300;6.614;2023-02-25T17:23:16;3.70;99.90
52943;DHT22;38809;53.300;6.614;2023-02-25T17:25:46;3.30;99.90
52943;DHT22;38809;53.300;6.614;2023-02-25T17:28:22;3.40;99.90
52943;DHT22;38809;53.300;6.614;2023-02-25T17:30:49;3.30;99.90
52943;DHT22;38809;53.300;6.614;2023-02-25T17:33:25;3.30;99.90
52943;DHT22;38809;53.300;6.614;2023-02-25T17:36:08;3.40;99.90
52943;DHT22;38809;53.300;6.614;2023-02-25T17:38:36;3.40;99.90
52943;DHT22;38809;53.300;6.614;2023-02-25T17:41:02;3.30;99.90
52943;DHT22;38809;53.300;6.614;2023-02-25T17:43:34;3.30;99.90
52943;DHT22;38809;53.300;6.614;2023-02-25T17:46:13;3.20;99.90
52943;DHT22;38809;53.300;6.614;2023-02-25T17:48:40;3.30;99.90
52943;DHT22;38809;53.300;6.614;2023-02-25T17:51:08;3.30;99.90
52943;DHT22;38809;53.300;6.614;2023-02-25T17:53:46;3.30;99.90
52943;DHT22;38809;53.300;6.614;2023-02-25T17:56:24;3.30;99.90
52943;DHT22;38809;53.300;6.614;2023-02-25T17:58:59;3.30;99.90
52943;DHT22;38809;53.300;6.614;2023-02-25T18:01:30;3.40;99.90
52943;DHT22;38809;53.300;6.614;2023-02-25T18:04:40;3.50;99.90
52943;DHT22;38809;53.300;6.614;2023-02-25T18:09:47;3.50;99.90
52943;DHT22;38809;53.300;6.614;2023-02-25T18:12:26;5.30;99.90
52943;DHT22;38809;53.300;6.614;2023-02-25T18:14:58;3.30;99.90
52943;DHT22;38809;53.300;6.614;2023-02-25T18:17:27;3.30;99.90
52943;DHT22;38809;53.300;6.614;2023-02-25T18:19:59;3.90;99.90
52943;DHT22;38809;53.300;6.614;2023-02-25T18:22:38;3.50;99.90
52943;DHT22;38809;53.300;6.614;2023-02-25T18:27:59;3.30;99.90
52943;DHT22;38809;53.300;6.614;2023-02-25T18:30:27;3.30;99.90
52943;DHT22;38809;53.300;6.614;2023-02-25T18:32:53;3.20;99.90
52943;DHT22;38809;53.300;6.614;2023-02-25T18:35:22;3.20;99.90
52943;DHT22;38809;53.300;6.614;2023-02-25T18:37:51;3.20;99.90
52943;DHT22;38809;53.300;6.614;2023-02-25T18:42:58;3.20;99.90
52943;DHT22;38809;53.300;6.614;2023-02-25T18:45:25;3.30;99.90
52943;DHT22;38809;53.300;6.614;2023-02-25T18:47:53;3.40;99.90
52943;DHT22;38809;53.300;6.614;2023-02-25T18:50:20;3.40;99.90
52943;DHT22;38809;53.300;6.614;2023-02-25T18:52:46;3.50;99.90
52943;DHT22;38809;53.300;6.614;2023-02-25T18:55:22;3.60;99.90
52943;DHT22;38809;53.300;6.614;2023-02-25T18:57:48;3.50;99.90
52943;DHT22;38809;53.300;6.614;2023-02-25T19:00:15;4.10;99.90
52943;DHT22;38809;53.300;6.614;2023-02-25T19:02:53;3.60;99.90
52943;DHT22;38809;53.300;6.614;2023-02-25T19:05:21;3.50;99.90
52943;DHT22;38809;53.300;6.614;2023-02-25T19:07:48;3.40;99.90
52943;DHT22;38809;53.300;6.614;2023-02-25T19:10:16;3.40;99.90
52943;DHT22;38809;53.300;6.614;2023-02-25T19:12:44;3.40;99.90
52943;DHT22;38809;53.300;6.614;2023-02-25T19:15:14;3.40;99.90
52943;DHT22;38809;53.300;6.614;2023-02-25T19:17:40;3.30;99.90
52943;DHT22;38809;53.300;6.614;2023-02-25T19:20:08;4.00;99.90
52943;DHT22;38809;53.300;6.614;2023-02-25T19:22:40;3.30;99.90
52943;DHT22;38809;53.300;6.614;2023-02-25T19:25:14;3.30;99.90
52943;DHT22;38809;53.300;6.614;2023-02-25T19:27:41;3.20;99.90
52943;DHT22;38809;53.300;6.614;2023-02-25T19:30:12;3.20;99.90
52943;DHT22;38809;53.300;6.614;2023-02-25T19:32:38;3.20;99.90
52943;DHT22;38809;53.300;6.614;2023-02-25T19:35:04;3.40;99.90
52943;DHT22;38809;53.300;6.614;2023-02-25T19:37:38;3.40;99.90
52943;DHT22;38809;53.300;6.614;2023-02-25T19:40:06;3.40;99.90
52943;DHT22;38809;53.300;6.614;2023-02-25T19:42:36;3.50;99.90
52943;DHT22;38809;53.300;6.614;2023-02-25T19:45:03;4.70;99.90
52943;DHT22;38809;53.300;6.614;2023-02-25T19:47:29;3.60;99.90
52943;DHT22;38809;53.300;6.614;2023-02-25T19:49:54;3.60;99.90
52943;DHT22;38809;53.300;6.614;2023-02-25T19:52:20;3.50;99.90
52943;DHT22;38809;53.300;6.614;2023-02-25T19:54:46;3.50;99.90
52943;DHT22;38809;53.300;6.614;2023-02-25T19:57:11;3.50;99.90
52943;DHT22;38809;53.300;6.614;2023-02-25T19:59:38;3.50;99.90
52943;DHT22;38809;53.300;6.614;2023-02-25T20:02:04;3.70;99.90
52943;DHT22;38809;53.300;6.614;2023-02-25T20:04:29;3.70;99.90
52943;DHT22;38809;53.300;6.614;2023-02-25T20:06:55;3.60;99.90
52943;DHT22;38809;53.300;6.614;2023-02-25T20:09:21;3.50;99.90
52943;DHT22;38809;53.300;6.614;2023-02-25T20:11:47;3.50;99.90
52943;DHT22;38809;53.300;6.614;2023-02-25T20:14:13;4.10;99.90